createdAt,value
2022-11-01T00:00:26.394Z,5.60
2022-11-01T00:03:28.007Z,5.10
2022-11-01T00:06:29.692Z,4.47
2022-11-01T00:09:31.393Z,4.37
2022-11-01T00:12:33.035Z,4.70
2022-11-01T00:15:34.647Z,4.40
2022-11-01T00:18:36.241Z,4.87
2022-11-01T00:21:38.358Z,5.20
2022-11-01T00:24:39.958Z,5.07
2022-11-01T00:27:41.471Z,4.97
2022-11-01T00:30:43.124Z,4.57
2022-11-01T00:33:45.069Z,5.23
2022-11-01T00:36:46.739Z,5.00
2022-11-01T00:39:48.368Z,4.87
2022-11-01T00:42:49.931Z,4.73
2022-11-01T00:45:51.624Z,4.77
2022-11-01T00:48:53.258Z,5.00
2022-11-01T00:51:54.940Z,5.17
2022-11-01T00:54:56.616Z,4.77
2022-11-01T00:57:58.252Z,4.40
2022-11-01T01:01:00.288Z,4.53
2022-11-01T01:04:01.871Z,4.27
2022-11-01T01:07:03.437Z,5.00
2022-11-01T01:10:05.925Z,5.27
2022-11-01T01:13:07.538Z,5.10
2022-11-01T01:16:10.078Z,4.50
2022-11-01T01:19:11.623Z,5.60
2022-11-01T01:22:13.327Z,4.57
2022-11-01T01:25:15.376Z,4.70
2022-11-01T01:28:16.941Z,4.37
2022-11-01T01:31:18.580Z,4.67
2022-11-01T01:34:20.318Z,4.83
2022-11-01T01:37:21.852Z,5.00
2022-11-01T01:40:23.456Z,4.93
2022-11-01T01:43:40.045Z,5.83
2022-11-01T01:46:41.656Z,5.20
2022-11-01T01:49:44.547Z,5.73
2022-11-01T01:52:59.331Z,5.00
2022-11-01T01:56:03.251Z,5.20
2022-11-01T01:59:09.129Z,5.10
2022-11-01T02:02:10.991Z,5.47
2022-11-01T02:05:19.601Z,5.17
2022-11-01T02:08:27.802Z,5.50
2022-11-01T02:11:29.493Z,5.40
2022-11-01T02:14:31.393Z,4.70
2022-11-01T02:17:56.319Z,5.37
2022-11-01T02:21:16.728Z,5.53
2022-11-01T02:24:27.564Z,5.67
2022-11-01T02:27:32.856Z,5.73
2022-11-01T02:30:45.873Z,5.83
2022-11-01T02:33:49.683Z,5.83
2022-11-01T02:37:02.853Z,5.07
2022-11-01T02:40:09.939Z,5.60
2022-11-01T02:43:22.146Z,5.73
2022-11-01T02:46:42.968Z,6.43
2022-11-01T02:49:46.256Z,5.67
2022-11-01T02:52:48.114Z,6.00
2022-11-01T02:55:53.364Z,6.70
2022-11-01T02:58:55.455Z,6.30
2022-11-01T03:02:10.194Z,5.93
2022-11-01T03:05:18.847Z,5.10
2022-11-01T03:08:22.890Z,5.17
2022-11-01T03:11:27.382Z,5.10
2022-11-01T03:14:28.907Z,5.27
2022-11-01T03:17:38.220Z,5.20
2022-11-01T03:20:49.825Z,5.40
2022-11-01T03:24:17.798Z,4.90
2022-11-01T03:27:19.382Z,4.87
2022-11-01T03:30:21.077Z,4.90
2022-11-01T03:33:24.677Z,5.33
2022-11-01T03:36:31.059Z,5.17
2022-11-01T03:39:39.980Z,5.57
2022-11-01T03:42:45.632Z,4.97
2022-11-01T03:45:48.550Z,5.77
2022-11-01T03:48:50.188Z,5.60
2022-11-01T03:51:51.720Z,8.90
2022-11-01T03:54:53.336Z,7.90
2022-11-01T03:57:56.916Z,7.90
2022-11-01T04:00:58.500Z,7.60
2022-11-01T04:04:00.136Z,7.43
2022-11-01T04:07:01.849Z,6.67
2022-11-01T04:10:03.673Z,5.73
2022-11-01T04:13:05.686Z,5.67
2022-11-01T04:16:27.715Z,5.27
2022-11-01T04:19:48.038Z,5.80
2022-11-01T04:22:49.750Z,5.23
2022-11-01T04:25:51.374Z,5.57
2022-11-01T04:28:59.035Z,5.23
2022-11-01T04:32:00.607Z,4.80
2022-11-01T04:35:02.217Z,5.20
2022-11-01T04:38:04.395Z,5.10
2022-11-01T04:41:06.141Z,5.10
2022-11-01T04:44:07.943Z,5.20
2022-11-01T04:47:09.549Z,5.90
2022-11-01T04:50:11.190Z,4.93
2022-11-01T04:53:13.071Z,5.00
2022-11-01T04:56:14.784Z,5.17
2022-11-01T04:59:16.334Z,4.83
2022-11-01T05:02:18.322Z,5.10
2022-11-01T05:05:20.009Z,6.03
2022-11-01T05:08:21.665Z,7.27
2022-11-01T05:11:25.754Z,8.10
2022-11-01T05:14:27.683Z,6.73
2022-11-01T05:17:29.412Z,6.87
2022-11-01T05:20:31.288Z,7.10
2022-11-01T05:23:32.903Z,7.00
2022-11-01T05:26:34.551Z,7.00
2022-11-01T05:29:36.177Z,7.10
2022-11-01T05:32:38.072Z,6.53
2022-11-01T05:35:39.989Z,8.20
2022-11-01T05:38:41.629Z,5.80
2022-11-01T05:41:46.363Z,6.40
2022-11-01T05:44:48.062Z,6.47
2022-11-01T05:47:49.637Z,6.00
2022-11-01T05:50:51.281Z,6.43
2022-11-01T05:53:52.838Z,7.10
2022-11-01T05:56:54.676Z,7.10
2022-11-01T05:59:56.257Z,6.47
2022-11-01T06:02:58.322Z,7.10
2022-11-01T06:06:00.168Z,5.47
2022-11-01T06:09:03.064Z,5.50
2022-11-01T06:12:05.189Z,6.17
2022-11-01T06:15:07.052Z,5.80
2022-11-01T06:18:08.818Z,6.37
2022-11-01T06:21:10.398Z,5.73
2022-11-01T06:24:12.167Z,7.57
2022-11-01T06:27:13.783Z,10.20
2022-11-01T06:30:15.443Z,13.20
2022-11-01T06:33:17.075Z,10.17
2022-11-01T06:36:18.640Z,14.23
2022-11-01T06:39:20.220Z,10.83
2022-11-01T06:42:21.884Z,9.93
2022-11-01T06:45:23.511Z,9.10
2022-11-01T06:48:25.079Z,7.40
2022-11-01T06:51:27.015Z,8.00
2022-11-01T06:54:28.620Z,6.73
2022-11-01T06:57:30.193Z,6.13
2022-11-01T07:00:31.966Z,6.57
2022-11-01T07:03:33.656Z,6.63
2022-11-01T07:06:35.339Z,6.37
2022-11-01T07:09:36.952Z,5.80
2022-11-01T07:12:38.593Z,5.43
2022-11-01T07:15:40.316Z,5.77
2022-11-01T07:18:42.102Z,5.27
2022-11-01T07:21:43.792Z,9.40
2022-11-01T07:24:45.427Z,9.60
2022-11-01T07:27:47.055Z,8.90
2022-11-01T07:30:49.183Z,8.30
2022-11-01T07:33:50.859Z,5.73
2022-11-01T07:36:52.796Z,5.93
2022-11-01T07:39:54.345Z,6.95
2022-11-01T07:42:57.013Z,6.10
2022-11-01T07:45:59.661Z,7.32
2022-11-01T07:49:01.425Z,8.77
2022-11-01T07:52:04.274Z,7.30
2022-11-01T07:55:06.181Z,9.43
2022-11-01T07:58:08.218Z,7.05
2022-11-01T08:01:10.600Z,15.65
2022-11-01T08:04:12.578Z,27.98
2022-11-01T08:07:14.213Z,43.03
2022-11-01T08:10:15.825Z,40.75
2022-11-01T08:13:22.177Z,19.77
2022-11-01T08:16:23.724Z,5.40
2022-11-01T08:19:25.371Z,5.10
2022-11-01T08:22:27.006Z,6.80
2022-11-01T08:25:28.565Z,9.55
2022-11-01T08:28:30.510Z,7.45
2022-11-01T08:31:32.207Z,10.32
2022-11-01T08:34:33.906Z,6.93
2022-11-01T08:37:35.496Z,7.32
2022-11-01T08:40:37.143Z,5.10
2022-11-01T08:43:40.620Z,5.60
2022-11-01T08:46:43.511Z,5.13
2022-11-01T08:49:45.749Z,4.10
2022-11-01T08:52:47.397Z,4.70
2022-11-01T08:55:54.035Z,5.55
2022-11-01T08:58:55.688Z,3.97
2022-11-01T09:01:57.523Z,3.63
2022-11-01T09:05:02.760Z,3.97
2022-11-01T09:08:04.946Z,4.05
2022-11-01T09:11:07.008Z,3.67
2022-11-01T09:14:08.962Z,4.75
2022-11-01T09:17:10.541Z,5.25
2022-11-01T09:20:12.158Z,4.40
2022-11-01T09:23:13.938Z,3.65
2022-11-01T09:26:15.541Z,3.63
2022-11-01T09:29:18.978Z,3.78
2022-11-01T09:32:21.272Z,4.60
2022-11-01T09:35:22.865Z,3.90
2022-11-01T09:38:24.558Z,3.92
2022-11-01T09:41:26.149Z,4.22
2022-11-01T09:44:33.954Z,4.40
2022-11-01T09:47:35.692Z,3.67
2022-11-01T09:50:38.070Z,3.90
2022-11-01T09:53:39.772Z,3.77
2022-11-01T09:56:43.158Z,4.13
2022-11-01T09:59:49.625Z,4.10
2022-11-01T10:02:51.290Z,4.30
2022-11-01T10:06:13.626Z,4.70
2022-11-01T10:09:35.588Z,4.67
2022-11-01T10:12:37.227Z,3.73
2022-11-01T10:15:39.058Z,4.00
2022-11-01T10:18:49.747Z,4.27
2022-11-01T10:21:54.515Z,4.63
2022-11-01T10:24:58.616Z,4.80
2022-11-01T10:28:09.269Z,4.60
2022-11-01T10:31:14.767Z,3.97
2022-11-01T10:34:16.309Z,3.60
2022-11-01T10:37:20.685Z,3.67
2022-11-01T10:40:30.260Z,3.97
2022-11-01T10:43:34.492Z,3.43
2022-11-01T10:46:41.102Z,3.67
2022-11-01T10:50:04.908Z,3.30
2022-11-01T10:53:11.609Z,3.40
2022-11-01T10:56:28.322Z,3.20
2022-11-01T10:59:41.183Z,3.80
2022-11-01T11:02:47.939Z,3.63
2022-11-01T11:05:50.769Z,3.53
2022-11-01T11:08:53.731Z,2.93
2022-11-01T11:11:56.780Z,3.20
2022-11-01T11:15:03.874Z,3.23
2022-11-01T11:18:08.942Z,3.23
2022-11-01T11:21:12.101Z,3.70
2022-11-01T11:24:20.763Z,3.90
2022-11-01T11:27:23.944Z,3.50
2022-11-01T11:30:30.230Z,3.67
2022-11-01T11:33:32.012Z,4.00
2022-11-01T11:36:40.925Z,4.03
2022-11-01T11:39:58.868Z,3.40
2022-11-01T11:43:18.705Z,3.70
2022-11-01T11:46:26.448Z,3.63
2022-11-01T11:49:28.101Z,3.10
2022-11-01T11:52:38.401Z,3.37
2022-11-01T11:55:42.741Z,3.67
2022-11-01T11:58:50.102Z,3.90
2022-11-01T12:02:00.007Z,3.63
2022-11-01T12:05:03.964Z,4.10
2022-11-01T12:08:05.868Z,3.67
2022-11-01T12:11:07.442Z,4.10
2022-11-01T12:14:24.708Z,4.00
2022-11-01T12:17:43.370Z,3.77
2022-11-01T12:20:51.912Z,3.80
2022-11-01T12:23:56.512Z,3.47
2022-11-01T12:27:02.314Z,3.80
2022-11-01T12:30:12.532Z,4.20
2022-11-01T12:33:25.237Z,3.40
2022-11-01T12:36:30.693Z,3.93
2022-11-01T12:39:41.102Z,4.07
2022-11-01T12:42:48.546Z,4.03
2022-11-01T12:46:12.767Z,4.10
2022-11-01T12:49:33.091Z,4.03
2022-11-01T12:52:53.052Z,3.90
2022-11-01T12:55:56.766Z,4.70
2022-11-01T12:58:58.494Z,3.90
2022-11-01T13:02:15.527Z,3.67
2022-11-01T13:05:22.304Z,4.10
2022-11-01T13:08:29.712Z,3.97
2022-11-01T13:11:50.050Z,3.87
2022-11-01T13:15:03.645Z,4.27
2022-11-01T13:18:23.547Z,3.80
2022-11-01T13:21:43.908Z,3.50
2022-11-01T13:25:00.772Z,4.00
2022-11-01T13:28:11.674Z,3.40
2022-11-01T13:31:26.488Z,4.50
2022-11-01T13:34:36.095Z,3.30
2022-11-01T13:37:37.695Z,3.30
2022-11-01T13:40:50.540Z,3.17
2022-11-01T13:43:58.596Z,5.50
2022-11-01T13:47:03.235Z,4.00
2022-11-01T13:50:11.175Z,3.80
2022-11-01T13:53:12.746Z,3.87
2022-11-01T13:56:26.539Z,4.03
2022-11-01T13:59:37.284Z,4.03
2022-11-01T14:02:47.858Z,4.00
2022-11-01T14:06:07.931Z,4.70
2022-11-01T14:09:25.824Z,4.53
2022-11-01T14:12:36.556Z,3.90
2022-11-01T14:15:59.500Z,4.27
2022-11-01T14:19:04.266Z,4.13
2022-11-01T14:22:25.900Z,4.23
2022-11-01T14:25:30.560Z,4.27
2022-11-01T14:28:32.236Z,5.43
2022-11-01T14:31:35.121Z,7.67
2022-11-01T14:34:37.262Z,4.83
2022-11-01T14:37:47.714Z,5.30
2022-11-01T14:40:51.987Z,5.13
2022-11-01T14:43:54.749Z,5.97
2022-11-01T14:46:58.705Z,6.57
2022-11-01T14:50:02.845Z,7.17
2022-11-01T14:53:11.057Z,6.37
2022-11-01T14:56:12.601Z,6.70
2022-11-01T14:59:21.767Z,6.50
2022-11-01T15:02:25.484Z,6.80
2022-11-01T15:05:27.497Z,8.53
2022-11-01T15:08:36.248Z,6.60
2022-11-01T15:11:37.915Z,5.80
2022-11-01T15:14:43.998Z,5.93
2022-11-01T15:18:12.015Z,7.83
2022-11-01T15:24:22.131Z,9.80
2022-11-01T15:27:25.691Z,13.00
2022-11-01T15:30:28.875Z,11.73
2022-11-01T15:33:36.385Z,13.23
2022-11-01T15:36:39.345Z,13.13
2022-11-01T15:39:40.944Z,12.67
2022-11-01T15:42:48.931Z,11.43
2022-11-01T15:45:53.636Z,12.07
2022-11-01T15:48:58.184Z,12.50
2022-11-01T15:52:20.035Z,11.90
2022-11-01T15:55:35.317Z,13.87
2022-11-01T15:58:46.860Z,15.13
2022-11-01T16:01:49.002Z,16.37
2022-11-01T16:04:50.883Z,16.60
2022-11-01T16:07:52.724Z,17.17
2022-11-01T16:10:54.587Z,14.33
2022-11-01T16:14:00.022Z,14.43
2022-11-01T16:17:02.937Z,18.80
2022-11-01T16:20:24.638Z,15.70
2022-11-01T16:23:28.486Z,14.57
2022-11-01T16:26:30.495Z,15.50
2022-11-01T16:29:39.123Z,17.83
2022-11-01T16:32:40.799Z,18.50
2022-11-01T16:35:42.620Z,15.90
2022-11-01T16:38:55.932Z,15.90
2022-11-01T16:41:58.256Z,13.83
2022-11-01T16:44:59.874Z,13.37
2022-11-01T16:48:01.889Z,10.97
2022-11-01T16:51:06.024Z,10.20
2022-11-01T16:54:11.541Z,10.23
2022-11-01T16:57:19.356Z,10.90
2022-11-01T17:00:20.918Z,13.00
2022-11-01T17:03:24.394Z,12.27
2022-11-01T17:06:26.668Z,12.63
2022-11-01T17:09:32.654Z,12.20
2022-11-01T17:12:34.733Z,9.37
2022-11-01T17:15:40.643Z,12.43
2022-11-01T17:18:51.593Z,12.83
2022-11-01T17:21:53.922Z,12.67
2022-11-01T17:24:55.919Z,12.53
2022-11-01T17:27:57.672Z,12.90
2022-11-01T17:30:59.478Z,10.83
2022-11-01T17:34:01.292Z,12.70
2022-11-01T17:37:03.559Z,11.50
2022-11-01T17:40:15.351Z,12.47
2022-11-01T17:43:17.728Z,13.27
2022-11-01T17:46:22.629Z,13.30
2022-11-01T17:49:29.416Z,13.10
2022-11-01T17:52:34.403Z,12.40
2022-11-01T17:55:37.226Z,12.50
2022-11-01T17:58:39.267Z,12.27
2022-11-01T18:01:42.870Z,10.47
2022-11-01T18:04:45.356Z,10.50
2022-11-01T18:07:50.315Z,7.87
2022-11-01T18:11:05.474Z,7.43
2022-11-01T18:14:13.539Z,7.70
2022-11-01T18:17:30.620Z,7.27
2022-11-01T18:20:36.386Z,7.97
2022-11-01T18:23:40.286Z,7.57
2022-11-01T18:26:44.993Z,7.70
2022-11-01T18:29:50.115Z,8.00
2022-11-01T18:32:58.568Z,8.00
2022-11-01T18:36:09.341Z,6.40
2022-11-01T18:39:23.460Z,8.63
2022-11-01T18:42:25.713Z,7.70
2022-11-01T18:45:44.229Z,8.07
2022-11-01T18:49:01.240Z,6.13
2022-11-01T18:52:12.227Z,8.57
2022-11-01T18:55:16.832Z,7.53
2022-11-01T18:58:28.944Z,7.70
2022-11-01T19:01:34.829Z,7.57
2022-11-01T19:04:37.712Z,9.20
2022-11-01T19:08:04.829Z,6.67
2022-11-01T19:11:02.485Z,8.00
2022-11-01T19:14:06.233Z,8.63
2022-11-01T19:17:18.235Z,7.77
2022-11-01T19:20:19.962Z,8.53
2022-11-01T19:23:22.731Z,9.80
2022-11-01T19:26:24.322Z,7.23
2022-11-01T19:29:31.969Z,9.87
2022-11-01T19:32:34.338Z,9.60
2022-11-01T19:35:37.339Z,7.53
2022-11-01T19:38:43.330Z,6.53
2022-11-01T19:41:45.659Z,5.90
2022-11-01T19:44:47.377Z,5.73
2022-11-01T19:47:50.408Z,7.07
2022-11-01T19:50:52.183Z,6.50
2022-11-01T19:53:54.381Z,6.70
2022-11-01T19:56:58.994Z,8.03
2022-11-01T20:00:20.094Z,6.60
2022-11-01T20:03:26.181Z,6.00
2022-11-01T20:06:29.009Z,6.30
2022-11-01T20:09:35.509Z,5.23
2022-11-01T20:12:40.952Z,5.37
2022-11-01T20:15:45.323Z,5.83
2022-11-01T20:18:47.049Z,6.00
2022-11-01T20:21:48.649Z,6.10
2022-11-01T20:24:50.395Z,7.00
2022-11-01T20:27:52.046Z,7.00
2022-11-01T20:30:53.702Z,7.07
2022-11-01T20:33:55.381Z,7.30
2022-11-01T20:37:22.854Z,8.50
2022-11-01T20:40:18.757Z,9.83
2022-11-01T20:43:20.468Z,8.37
2022-11-01T20:46:22.118Z,8.33
2022-11-01T20:49:23.728Z,7.17
2022-11-01T20:52:40.640Z,6.73
2022-11-01T20:55:42.863Z,7.47
2022-11-01T20:58:44.652Z,7.43
2022-11-01T21:01:46.370Z,8.17
2022-11-01T21:04:51.373Z,8.00
2022-11-01T21:07:53.855Z,9.70
2022-11-01T21:10:56.651Z,9.53
2022-11-01T21:13:59.076Z,9.37
2022-11-01T21:17:01.587Z,8.83
2022-11-01T21:20:10.985Z,8.43
2022-11-01T21:23:18.541Z,7.27
2022-11-01T21:26:21.531Z,6.90
2022-11-01T21:29:26.424Z,7.40
2022-11-01T21:32:34.933Z,7.60
2022-11-01T21:35:38.218Z,7.30
2022-11-01T21:38:42.983Z,7.03
2022-11-01T21:41:47.609Z,7.53
2022-11-01T21:44:49.329Z,7.37
2022-11-01T21:47:51.497Z,7.37
2022-11-01T21:50:53.062Z,6.70
2022-11-01T21:53:55.969Z,7.63
2022-11-01T21:56:59.537Z,7.33
2022-11-01T22:00:01.195Z,6.53
2022-11-01T22:03:03.240Z,6.27
2022-11-01T22:06:05.121Z,6.93
2022-11-01T22:09:07.809Z,5.73
2022-11-01T22:12:09.368Z,6.03
2022-11-01T22:15:10.941Z,6.17
2022-11-01T22:18:12.641Z,6.40
2022-11-01T22:21:14.381Z,6.33
2022-11-01T22:24:16.011Z,6.77
2022-11-01T22:27:17.594Z,6.57
2022-11-01T22:30:19.171Z,7.03
2022-11-01T22:33:20.868Z,6.43
2022-11-01T22:36:24.602Z,6.00
2022-11-01T22:39:26.804Z,5.83
2022-11-01T22:42:28.406Z,5.27
2022-11-01T22:45:30.039Z,5.33
2022-11-01T22:48:31.713Z,5.63
2022-11-01T22:51:41.814Z,5.07
2022-11-01T22:54:47.447Z,4.63
2022-11-01T22:57:57.685Z,5.20
2022-11-01T23:01:00.416Z,5.77
2022-11-01T23:04:02.129Z,5.53
2022-11-01T23:07:06.304Z,6.33
2022-11-01T23:10:20.049Z,5.80
2022-11-01T23:13:50.458Z,6.23
2022-11-01T23:16:52.011Z,6.53
2022-11-01T23:19:55.900Z,6.70
2022-11-01T23:22:58.944Z,6.40
2022-11-01T23:26:02.295Z,6.40
2022-11-01T23:29:03.862Z,5.90
2022-11-01T23:32:05.457Z,6.03
2022-11-01T23:35:19.296Z,6.63
2022-11-01T23:38:35.337Z,6.47
2022-11-01T23:41:41.696Z,6.33
2022-11-01T23:44:43.617Z,6.17
2022-11-01T23:47:45.282Z,6.17
2022-11-01T23:50:47.137Z,6.10
2022-11-01T23:53:50.801Z,6.10
2022-11-01T23:56:53.877Z,5.70
2022-11-01T23:59:56.047Z,5.10
